Time;durP1;ratioP1;P1;durP2;ratioP2;P2;SDS_P1;SDS_P2;PMS_P1;PMS_P2;Temp;Humidity;BMP_temperature;BMP_pressure;BME280_temperature;BME280_humidity;BME280_pressure;Samples;Min_cycle;Max_cycle;Signal;HPM_P1;HPM_P2
2023/11/27 00:00:13;;;;;;;17.67;11.18;;;6.80;99.90;;;;;;5015952;28;20022;-93
2023/11/27 00:02:39;;;;;;;16.02;10.60;;;7.30;99.90;;;;;;5015099;28;20051;-92
2023/11/27 00:05:05;;;;;;;15.02;11.80;;;7.60;99.90;;;;;;5015488;28;20022;-91
2023/11/27 00:07:31;;;;;;;17.02;12.15;;;6.80;99.90;;;;;;5015103;28;20022;-93
2023/11/27 00:09:56;;;;;;;15.43;11.63;;;7.00;99.90;;;;;;5015131;28;20497;-93
2023/11/27 00:12:23;;;;;;;16.65;12.10;;;7.30;99.90;;;;;;5015098;28;20029;-93
2023/11/27 00:14:49;;;;;;;16.23;13.38;;;7.50;99.90;;;;;;5014561;28;20097;-93
2023/11/27 00:17:20;;;;;;;16.30;12.60;;;7.60;99.90;;;;;;5044910;28;20017;-94
2023/11/27 00:19:46;;;;;;;22.75;14.70;;;7.70;99.90;;;;;;5056801;28;20053;-93
2023/11/27 00:22:13;;;;;;;22.15;15.00;;;6.70;99.90;;;;;;5025740;28;20026;-93
2023/11/27 00:24:42;;;;;;;17.98;14.07;;;7.70;99.90;;;;;;5024767;28;20029;-92
2023/11/27 00:27:11;;;;;;;22.85;15.23;;;7.60;99.90;;;;;;5037905;28;20073;-93
2023/11/27 00:29:51;;;;;;;18.50;14.43;;;7.50;99.90;;;;;;5032545;28;20092;-92
2023/11/27 00:32:29;;;;;;;28.15;13.45;;;5.90;99.90;;;;;;5021883;28;20029;-93
2023/11/27 00:35:28;;;;;;;17.95;12.98;;;6.70;99.90;;;;;;5091140;22;20027;-93
2023/11/27 00:37:54;;;;;;;24.95;12.57;;;6.70;99.90;;;;;;5014975;28;20021;-93
2023/11/27 00:40:19;;;;;;;17.65;11.43;;;7.40;99.90;;;;;;5014752;28;20516;-93
2023/11/27 00:42:48;;;;;;;19.52;12.40;;;7.60;99.90;;;;;;5014034;28;20394;-92
2023/11/27 00:45:14;;;;;;;17.75;12.05;;;6.30;99.90;;;;;;5014351;28;20363;-91
2023/11/27 00:47:46;;;;;;;28.33;11.93;;;7.40;99.90;;;;;;5013284;28;20030;-92
2023/11/27 00:50:12;;;;;;;21.20;11.50;;;6.90;99.90;;;;;;5013255;28;20026;-91
2023/11/27 00:52:37;;;;;;;18.58;11.30;;;6.60;99.90;;;;;;5014142;28;20033;-92
2023/11/27 00:55:13;;;;;;;17.33;12.27;;;6.60;99.90;;;;;;5013978;28;20113;-91
2023/11/27 01:00:10;;;;;;;20.65;10.38;;;6.70;99.90;;;;;;5055066;28;20103;-92
2023/11/27 01:02:39;;;;;;;19.65;10.63;;;6.70;99.90;;;;;;5062222;28;20029;-91
2023/11/27 01:05:22;;;;;;;19.67;11.27;;;7.40;99.90;;;;;;5059644;28;20128;-93
2023/11/27 01:07:47;;;;;;;17.48;10.25;;;7.40;99.90;;;;;;5054283;28;20041;-93
2023/11/27 01:10:17;;;;;;;16.20;9.35;;;6.60;99.90;;;;;;5056502;28;20377;-93
2023/11/27 01:12:43;;;;;;;16.92;9.60;;;5.50;99.90;;;;;;5056314;28;20032;-94
2023/11/27 01:15:21;;;;;;;16.20;9.88;;;6.70;99.90;;;;;;5061030;28;20466;-94
2023/11/27 01:17:47;;;;;;;15.05;9.57;;;6.40;99.90;;;;;;5064094;28;20061;-92
2023/11/27 01:20:15;;;;;;;17.02;8.77;;;7.50;99.90;;;;;;5077548;28;20013;-94
2023/11/27 01:22:50;;;;;;;19.42;9.20;;;6.70;99.90;;;;;;5076781;28;20005;-93
2023/11/27 01:25:19;;;;;;;12.55;8.90;;;7.70;99.90;;;;;;5077167;28;20032;-94
2023/11/27 01:27:44;;;;;;;18.60;8.35;;;6.90;99.90;;;;;;5076175;28;20037;-92
2023/11/27 01:30:14;;;;;;;12.32;8.27;;;7.10;99.90;;;;;;5079138;28;20049;-92
2023/11/27 01:32:52;;;;;;;14.95;8.57;;;6.40;99.90;;;;;;5063841;28;20029;-92
2023/11/27 01:35:20;;;;;;;13.38;8.20;;;6.70;99.90;;;;;;5063805;28;20032;-94
2023/11/27 01:37:57;;;;;;;12.88;8.32;;;7.60;99.90;;;;;;5059579;28;20032;-95
2023/11/27 01:40:23;;;;;;;13.48;8.25;;;6.30;99.90;;;;;;5058083;28;20056;-93
2023/11/27 01:42:48;;;;;;;13.02;8.60;;;7.00;99.90;;;;;;5065474;22;20052;-94
2023/11/27 01:45:15;;;;;;;16.13;8.10;;;6.70;99.90;;;;;;5057262;28;20033;-93
2023/11/27 01:47:41;;;;;;;12.93;8.30;;;5.90;99.90;;;;;;5057452;28;20029;-93
2023/11/27 01:50:09;;;;;;;12.15;8.07;;;6.60;99.90;;;;;;5058012;28;20068;-92
2023/11/27 01:52:38;;;;;;;12.95;7.47;;;6.60;99.90;;;;;;5054058;28;20052;-93
2023/11/27 01:55:04;;;;;;;14.27;7.93;;;6.80;99.90;;;;;;5037917;28;20104;-93
2023/11/27 01:57:30;;;;;;;10.60;7.40;;;6.60;99.90;;;;;;5037569;28;20393;-92
2023/11/27 01:59:56;;;;;;;12.43;7.55;;;7.70;99.90;;;;;;5036713;28;20390;-92
2023/11/27 02:02:23;;;;;;;11.18;7.38;;;7.60;99.90;;;;;;5037705;28;20030;-92
2023/11/27 02:04:50;;;;;;;13.50;7.53;;;6.90;99.90;;;;;;5037716;28;20535;-93
2023/11/27 02:07:16;;;;;;;10.50;8.00;;;6.50;99.90;;;;;;5037884;28;20029;-93
2023/11/27 02:09:47;;;;;;;17.40;7.43;;;7.40;99.90;;;;;;5037583;28;20504;-93
2023/11/27 02:12:15;;;;;;;13.10;7.20;;;6.50;99.90;;;;;;5038118;28;20557;-93
2023/11/27 02:14:41;;;;;;;12.43;7.82;;;5.80;99.90;;;;;;5037774;28;20408;-94
2023/11/27 02:17:12;;;;;;;13.63;7.45;;;6.90;99.90;;;;;;5037176;28;20033;-92
2023/11/27 02:19:43;;;;;;;12.68;7.60;;;5.80;99.90;;;;;;5036591;28;20470;-92
2023/11/27 02:22:09;;;;;;;12.38;8.00;;;7.30;99.90;;;;;;5043380;28;20068;-93
2023/11/27 02:24:43;;;;;;;15.63;8.13;;;7.40;99.90;;;;;;5054269;28;20403;-93
2023/11/27 02:27:09;;;;;;;11.20;8.63;;;7.10;99.90;;;;;;5056524;28;20067;-94
2023/11/27 02:29:47;;;;;;;14.80;8.38;;;7.40;99.90;;;;;;5056930;28;20032;-94
2023/11/27 02:32:23;;;;;;;11.73;7.65;;;7.60;99.90;;;;;;5057483;28;20043;-93
2023/11/27 02:34:49;;;;;;;10.13;7.35;;;7.30;99.90;;;;;;5056610;28;20021;-91
2023/11/27 02:37:17;;;;;;;12.65;7.80;;;7.50;99.90;;;;;;5057431;28;20025;-92
2023/11/27 02:39:43;;;;;;;10.20;7.18;;;7.40;99.90;;;;;;5055514;28;20534;-94
2023/11/27 02:42:14;;;;;;;8.48;6.82;;;7.30;99.90;;;;;;5054777;28;20048;-95
2023/11/27 02:47:54;;;;;;;12.80;6.82;;;6.40;99.90;;;;;;5252721;22;20124;-90
2023/11/27 02:50:20;;;;;;;9.95;6.97;;;8.30;99.90;;;;;;5036557;28;20037;-95
2023/11/27 02:52:51;;;;;;;11.60;6.10;;;6.40;99.90;;;;;;5042473;28;20043;-93
2023/11/27 02:58:28;;;;;;;9.98;7.25;;;6.90;99.90;;;;;;5039322;28;20061;-95
2023/11/27 03:00:55;;;;;;;6.65;6.03;;;6.40;99.90;;;;;;5040393;28;20405;-96
2023/11/27 03:03:21;;;;;;;12.27;7.07;;;6.40;99.90;;;;;;5036327;28;20029;-94
2023/11/27 03:05:46;;;;;;;11.88;7.18;;;7.40;99.90;;;;;;5035096;28;20071;-93
2023/11/27 03:08:34;;;;;;;9.77;6.63;;;7.30;99.90;;;;;;5034836;28;20049;-94
2023/11/27 03:11:00;;;;;;;12.35;6.90;;;7.60;99.90;;;;;;5043923;28;20468;-94
2023/11/27 03:13:28;;;;;;;7.35;6.65;;;7.60;99.90;;;;;;5046734;28;20048;-94
2023/11/27 03:15:54;;;;;;;12.80;7.10;;;6.10;99.90;;;;;;5048203;28;20041;-93
2023/11/27 03:18:25;;;;;;;14.23;6.90;;;7.00;99.90;;;;;;5048231;28;20112;-94
2023/11/27 03:20:50;;;;;;;8.57;7.72;;;7.50;99.90;;;;;;5051023;28;20029;-94
2023/11/27 03:23:18;;;;;;;10.68;7.32;;;7.20;99.90;;;;;;5053237;28;20115;-94
2023/11/27 03:25:51;;;;;;;7.07;6.38;;;6.40;99.90;;;;;;5050241;28;20025;-94
2023/11/27 03:28:20;;;;;;;9.32;7.75;;;6.30;99.90;;;;;;5055438;28;20018;-94
2023/11/27 03:30:52;;;;;;;8.13;7.28;;;7.60;99.90;;;;;;5039676;28;20060;-94
2023/11/27 03:33:25;;;;;;;8.18;6.75;;;6.30;99.90;;;;;;5031737;28;20038;-96
2023/11/27 03:35:52;;;;;;;8.80;7.40;;;6.30;99.90;;;;;;5014087;28;20034;-94
2023/11/27 03:38:20;;;;;;;8.35;7.55;;;6.30;99.90;;;;;;5025759;28;20034;-95
2023/11/27 03:40:50;;;;;;;9.90;7.22;;;6.70;99.90;;;;;;5030225;28;20034;-94
2023/11/27 03:43:26;;;;;;;9.18;7.05;;;6.40;99.90;;;;;;5039602;28;20006;-94
2023/11/27 03:45:54;;;;;;;10.13;7.22;;;6.40;99.90;;;;;;5037370;28;20042;-94
2023/11/27 03:48:31;;;;;;;7.93;7.15;;;6.90;99.90;;;;;;5110082;22;20049;-95
2023/11/27 03:51:01;;;;;;;8.77;7.68;;;6.20;99.90;;;;;;5015183;28;20544;-93
2023/11/27 03:53:27;;;;;;;7.93;7.07;;;6.30;99.90;;;;;;5048922;28;20029;-94
2023/11/27 03:55:53;;;;;;;9.75;7.28;;;6.40;99.90;;;;;;5032809;28;20044;-95
2023/11/27 03:58:22;;;;;;;8.77;6.68;;;6.80;99.90;;;;;;5034340;28;20026;-94
2023/11/27 04:00:48;;;;;;;9.30;6.43;;;6.20;99.90;;;;;;5045225;28;20112;-93
2023/11/27 04:03:19;;;;;;;9.25;6.88;;;7.60;99.90;;;;;;5031854;28;20025;-94
2023/11/27 04:05:47;;;;;;;8.10;6.88;;;6.70;99.90;;;;;;5045689;28;20026;-92
2023/11/27 04:08:16;;;;;;;6.72;5.88;;;7.10;99.90;;;;;;5036060;28;20029;-94
2023/11/27 04:10:44;;;;;;;6.63;6.03;;;6.90;99.90;;;;;;5035942;28;20045;-93
2023/11/27 04:13:15;;;;;;;7.18;5.82;;;6.30;99.90;;;;;;5053623;28;20029;-94
2023/11/27 04:15:47;;;;;;;6.22;5.53;;;6.30;99.90;;;;;;5043775;28;20029;-94
2023/11/27 04:18:13;;;;;;;8.07;5.53;;;6.20;99.90;;;;;;5042111;28;20105;-93
2023/11/27 04:20:47;;;;;;;7.43;5.32;;;7.40;99.90;;;;;;5040381;28;20045;-94
2023/11/27 04:23:13;;;;;;;5.72;5.15;;;7.10;99.90;;;;;;5058336;28;20010;-93
2023/11/27 04:25:44;;;;;;;5.88;4.72;;;7.20;99.90;;;;;;5057750;28;20013;-94
2023/11/27 04:28:11;;;;;;;5.18;4.78;;;6.30;99.90;;;;;;5043759;28;20093;-94
2023/11/27 04:30:54;;;;;;;5.13;4.43;;;6.20;99.90;;;;;;5056957;28;20033;-94
2023/11/27 04:33:20;;;;;;;4.80;4.40;;;7.00;99.90;;;;;;5058110;28;20044;-94
2023/11/27 04:35:51;;;;;;;4.70;4.30;;;6.70;99.90;;;;;;5056229;28;20025;-92
2023/11/27 04:38:16;;;;;;;6.00;5.00;;;7.00;99.90;;;;;;5037309;28;20148;-91
2023/11/27 04:40:42;;;;;;;4.90;4.40;;;6.80;99.90;;;;;;5028188;28;20033;-94
2023/11/27 04:43:08;;;;;;;6.28;4.53;;;6.30;99.90;;;;;;5020781;28;20030;-93
2023/11/27 04:45:33;;;;;;;4.70;4.30;;;6.20;99.90;;;;;;5015762;28;20061;-93
2023/11/27 04:47:59;;;;;;;4.75;4.22;;;7.10;99.90;;;;;;5014953;28;20119;-93
2023/11/27 04:50:25;;;;;;;4.78;4.38;;;6.30;99.90;;;;;;5017043;28;20030;-95
2023/11/27 04:52:50;;;;;;;4.35;3.95;;;6.10;99.90;;;;;;5001141;28;20026;-94
2023/11/27 04:55:23;;;;;;;4.15;3.75;;;6.10;99.90;;;;;;5021123;28;20377;-93
2023/11/27 04:57:49;;;;;;;5.38;3.45;;;7.20;99.90;;;;;;5035146;28;20025;-94
2023/11/27 05:00:23;;;;;;;5.32;3.15;;;6.30;99.90;;;;;;5034902;28;20370;-95
2023/11/27 05:02:49;;;;;;;3.70;3.40;;;5.30;99.90;;;;;;5037287;28;20029;-92
2023/11/27 05:05:15;;;;;;;3.80;3.10;;;6.90;99.90;;;;;;5022810;28;20072;-95
2023/11/27 05:07:49;;;;;;;4.95;2.90;;;7.10;99.90;;;;;;5041295;28;20045;-94
2023/11/27 05:10:18;;;;;;;4.57;2.80;;;6.10;99.90;;;;;;5040478;28;20029;-94
2023/11/27 05:12:47;;;;;;;3.17;2.88;;;6.10;99.90;;;;;;5045361;28;20033;-94
2023/11/27 05:15:35;;;;;;;3.22;2.83;;;6.80;99.90;;;;;;5041835;28;20042;-94
2023/11/27 05:28:20;;;;;;;3.72;3.40;;;6.10;99.90;;;;;;5563953;22;20049;-95
2023/11/27 05:30:48;;;;;;;4.03;3.50;;;5.80;99.90;;;;;;5053801;28;20033;-94
2023/11/27 05:33:17;;;;;;;4.00;3.67;;;6.00;99.90;;;;;;5051087;28;20031;-94
2023/11/27 05:35:57;;;;;;;4.63;3.38;;;6.00;99.90;;;;;;5032464;28;20116;-93
2023/11/27 05:38:24;;;;;;;5.95;4.05;;;7.40;99.90;;;;;;5033480;28;20026;-95
2023/11/27 05:41:01;;;;;;;4.07;3.58;;;6.10;99.90;;;;;;5023902;28;20033;-94
2023/11/27 05:44:23;;;;;;;3.88;3.58;;;5.60;99.90;;;;;;5028056;28;20053;-96
2023/11/27 05:46:49;;;;;;;5.05;4.25;;;5.90;99.90;;;;;;5207191;22;20469;-90
2023/11/27 05:49:31;;;;;;;4.65;3.13;;;6.00;99.90;;;;;;5269116;22;20050;-93
2023/11/27 05:51:58;;;;;;;3.83;3.50;;;4.50;99.90;;;;;;5046523;28;20037;-93
2023/11/27 05:59:27;;;;;;;4.05;3.65;;;6.00;99.90;;;;;;5025106;28;20383;-93
2023/11/27 06:01:58;;;;;;;3.85;3.42;;;5.90;99.90;;;;;;5069186;22;20120;-95
2023/11/27 06:04:23;;;;;;;3.92;3.60;;;6.70;99.90;;;;;;5024270;28;20029;-92
2023/11/27 06:06:50;;;;;;;4.85;3.80;;;7.20;99.90;;;;;;5040385;28;20083;-94
2023/11/27 06:09:16;;;;;;;4.88;4.40;;;5.90;99.90;;;;;;5045439;28;20367;-94
2023/11/27 06:11:42;;;;;;;4.25;3.75;;;7.00;99.90;;;;;;5810997;22;20109;-95
2023/11/27 06:14:08;;;;;;;5.45;3.63;;;6.70;99.90;;;;;;5034451;28;20041;-91
2023/11/27 06:16:33;;;;;;;4.53;3.70;;;6.50;99.90;;;;;;5035246;28;20038;-92
2023/11/27 06:18:59;;;;;;;6.03;4.40;;;5.90;99.90;;;;;;5035917;28;20037;-93
2023/11/27 06:21:25;;;;;;;5.85;4.20;;;7.10;99.90;;;;;;5036793;28;20027;-94
2023/11/27 06:23:51;;;;;;;5.78;4.13;;;5.90;99.90;;;;;;5034178;28;20523;-92
2023/11/27 06:26:18;;;;;;;5.15;4.07;;;5.90;99.90;;;;;;5036196;28;20068;-94
2023/11/27 06:28:44;;;;;;;4.70;4.30;;;6.60;99.90;;;;;;5022457;28;20148;-92
2023/11/27 06:31:09;;;;;;;5.10;4.70;;;7.00;99.90;;;;;;5033121;28;20040;-92
2023/11/27 06:33:35;;;;;;;4.38;4.03;;;6.90;99.90;;;;;;5034630;28;20509;-91
2023/11/27 06:36:00;;;;;;;6.55;4.43;;;6.70;99.90;;;;;;5035652;28;20064;-91
2023/11/27 06:38:26;;;;;;;4.60;4.20;;;5.90;99.90;;;;;;5028625;28;20022;-93
2023/11/27 06:40:52;;;;;;;5.70;3.72;;;6.00;99.90;;;;;;5021038;28;20505;-93
2023/11/27 06:43:18;;;;;;;4.38;3.97;;;5.90;99.90;;;;;;5031007;28;20014;-92
2023/11/27 06:45:44;;;;;;;6.10;4.40;;;6.00;99.90;;;;;;5022643;28;20373;-91
2023/11/27 06:48:10;;;;;;;5.15;4.50;;;6.90;99.90;;;;;;5024117;28;20041;-90
2023/11/27 06:50:37;;;;;;;5.47;4.90;;;5.50;99.90;;;;;;5029054;28;20033;-92
2023/11/27 06:53:03;;;;;;;5.22;4.65;;;7.00;99.90;;;;;;5016230;28;20030;-92
2023/11/27 06:55:29;;;;;;;7.95;4.90;;;7.10;99.90;;;;;;5031468;28;20032;-91
2023/11/27 06:58:03;;;;;;;6.22;5.72;;;5.90;99.90;;;;;;5036431;28;20029;-92
2023/11/27 07:00:31;;;;;;;5.65;4.60;;;5.80;99.90;;;;;;5036958;28;20065;-91
2023/11/27 07:02:59;;;;;;;5.03;4.50;;;5.80;99.90;;;;;;5035872;28;20052;-92
2023/11/27 07:05:25;;;;;;;5.20;4.72;;;5.90;99.90;;;;;;5035744;28;20038;-93
2023/11/27 07:07:51;;;;;;;5.13;4.72;;;5.80;99.90;;;;;;5020837;28;20095;-93
2023/11/27 07:10:16;;;;;;;5.20;4.80;;;7.00;99.90;;;;;;5022231;28;20026;-90
2023/11/27 07:12:42;;;;;;;5.57;5.18;;;6.50;99.90;;;;;;5029856;28;20091;-92
2023/11/27 07:15:14;;;;;;;6.25;5.03;;;6.70;99.90;;;;;;5034127;28;20026;-92
2023/11/27 07:17:40;;;;;;;5.80;5.35;;;5.90;99.90;;;;;;5032781;28;20029;-92
2023/11/27 07:20:21;;;;;;;6.22;5.68;;;7.00;99.90;;;;;;5033819;28;20022;-93
2023/11/27 07:22:47;;;;;;;6.00;5.50;;;6.00;99.90;;;;;;5025918;28;20032;-93
2023/11/27 07:25:18;;;;;;;6.50;5.90;;;6.80;99.90;;;;;;5034622;28;20026;-91
2023/11/27 07:27:49;;;;;;;6.60;5.97;;;5.90;99.90;;;;;;5037769;28;20109;-93
2023/11/27 07:30:16;;;;;;;7.18;5.82;;;5.80;99.90;;;;;;5032551;28;20041;-94
2023/11/27 07:33:02;;;;;;;6.40;5.80;;;5.80;99.90;;;;;;5039842;28;20037;-93
2023/11/27 07:35:28;;;;;;;6.03;5.53;;;5.40;99.90;;;;;;5036666;28;20037;-93
2023/11/27 07:37:53;;;;;;;5.82;5.35;;;5.60;99.90;;;;;;5023664;28;20079;-93
2023/11/27 07:40:19;;;;;;;6.75;6.25;;;6.70;99.90;;;;;;5025801;28;20424;-89
2023/11/27 07:42:54;;;;;;;7.25;6.55;;;5.90;99.90;;;;;;5040428;28;20041;-93
2023/11/27 07:45:20;;;;;;;7.05;6.45;;;5.80;99.90;;;;;;5195440;22;20034;-93
2023/11/27 07:47:47;;;;;;;7.40;6.80;;;5.90;99.90;;;;;;5109092;22;20042;-93
2023/11/27 07:50:17;;;;;;;7.47;6.78;;;5.80;99.90;;;;;;5132272;22;21244;-93
2023/11/27 07:55:55;;;;;;;10.88;6.95;;;6.00;99.90;;;;;;5703104;22;20048;-93
2023/11/27 08:01:01;;;;;;;7.55;6.75;;;6.00;99.90;;;;;;5176461;22;20053;-94
2023/11/27 08:03:27;;;;;;;7.50;6.90;;;6.00;99.90;;;;;;5042486;28;20386;-92
2023/11/27 08:08:28;;;;;;;7.13;6.50;;;6.00;99.90;;;;;;5162530;22;20065;-93
2023/11/27 08:10:56;;;;;;;6.80;6.30;;;7.20;99.90;;;;;;5155381;22;20072;-91
2023/11/27 08:15:57;;;;;;;7.00;6.45;;;6.00;99.90;;;;;;6139368;22;20012;-92
2023/11/27 08:21:01;;;;;;;7.63;6.97;;;6.10;99.90;;;;;;5335422;22;19944;-91
2023/11/27 08:23:27;;;;;;;8.23;7.47;;;6.90;99.90;;;;;;5050262;28;20034;-93
2023/11/27 08:25:52;;;;;;;7.10;6.60;;;6.70;99.90;;;;;;5036139;28;20029;-93
2023/11/27 08:28:21;;;;;;;7.63;7.03;;;7.40;99.90;;;;;;5035343;28;20021;-93
2023/11/27 08:30:47;;;;;;;8.10;7.43;;;6.10;99.90;;;;;;5033035;28;20113;-91
2023/11/27 08:33:12;;;;;;;8.18;7.47;;;6.10;99.90;;;;;;5032814;28;20065;-93
2023/11/27 08:35:38;;;;;;;8.38;7.55;;;6.20;99.90;;;;;;5014863;28;20530;-93
2023/11/27 08:38:04;;;;;;;6.80;6.30;;;7.00;99.90;;;;;;5012836;28;20112;-92
2023/11/27 08:40:29;;;;;;;8.10;7.38;;;6.20;99.90;;;;;;5011930;28;20293;-92
2023/11/27 08:42:55;;;;;;;7.65;6.97;;;7.20;99.90;;;;;;5013485;28;20485;-92
2023/11/27 08:45:21;;;;;;;8.43;7.68;;;6.20;99.90;;;;;;5012577;28;20026;-91
2023/11/27 08:47:50;;;;;;;7.90;7.20;;;6.20;99.90;;;;;;5018076;28;20473;-91
2023/11/27 08:50:21;;;;;;;8.40;7.45;;;6.20;99.90;;;;;;5032642;28;20158;-92
2023/11/27 08:52:46;;;;;;;;;;;6.20;99.90;;;;;;5033629;28;20029;-92
2023/11/27 08:55:18;;;;;;;8.32;7.63;;;6.70;99.90;;;;;;5024580;28;19933;-92
2023/11/27 08:57:45;;;;;;;7.82;7.22;;;6.30;99.90;;;;;;5025652;28;20036;-92
2023/11/27 09:00:12;;;;;;;8.52;7.72;;;6.40;99.90;;;;;;5018858;28;20545;-92
2023/11/27 09:02:38;;;;;;;7.95;7.35;;;6.30;99.90;;;;;;5013981;28;20037;-89
2023/11/27 09:05:07;;;;;;;7.47;6.88;;;6.30;99.90;;;;;;5018163;28;20026;-87
2023/11/27 09:07:33;;;;;;;8.60;7.80;;;6.30;99.90;;;;;;5028760;28;20033;-91
2023/11/27 09:09:58;;;;;;;8.02;7.32;;;7.30;99.90;;;;;;5032066;28;20030;-89
2023/11/27 09:12:24;;;;;;;9.15;8.45;;;6.40;99.90;;;;;;5032559;28;20478;-88
2023/11/27 09:14:51;;;;;;;8.07;7.38;;;7.40;99.90;;;;;;5032558;28;20389;-89
2023/11/27 09:17:16;;;;;;;8.43;7.63;;;6.50;99.90;;;;;;5031158;28;20029;-89
2023/11/27 09:19:44;;;;;;;9.30;8.07;;;6.50;99.90;;;;;;5013754;28;20028;-92
2023/11/27 09:22:09;;;;;;;9.70;7.10;;;6.60;99.90;;;;;;5016045;28;20030;-93
2023/11/27 09:24:38;;;;;;;9.27;8.38;;;7.40;99.90;;;;;;5019548;28;20080;-95
2023/11/27 09:27:04;;;;;;;8.55;7.72;;;7.30;99.90;;;;;;5018023;28;20076;-89
2023/11/27 09:29:30;;;;;;;8.00;7.35;;;6.50;99.90;;;;;;5020302;28;20033;-90
2023/11/27 09:31:56;;;;;;;8.20;7.50;;;6.50;99.90;;;;;;5024604;28;20547;-91
2023/11/27 09:34:21;;;;;;;8.82;7.97;;;6.50;99.90;;;;;;5027433;28;20030;-91
2023/11/27 09:36:47;;;;;;;8.35;7.60;;;6.40;99.90;;;;;;5029543;28;20025;-91
2023/11/27 09:39:13;;;;;;;8.98;8.27;;;6.50;99.90;;;;;;5025000;28;20073;-94
2023/11/27 09:41:39;;;;;;;8.85;8.10;;;6.50;99.90;;;;;;5020896;28;20026;-91
2023/11/27 09:44:18;;;;;;;9.05;8.25;;;7.30;99.90;;;;;;5024655;28;20037;-91
2023/11/27 09:46:46;;;;;;;7.70;7.20;;;6.40;99.90;;;;;;5027050;28;20083;-92
2023/11/27 09:49:16;;;;;;;8.13;7.43;;;6.50;99.90;;;;;;5027052;28;20474;-91
2023/11/27 09:51:49;;;;;;;8.00;7.40;;;6.50;99.90;;;;;;5027410;28;20112;-91
2023/11/27 09:54:21;;;;;;;8.45;7.85;;;6.50;99.90;;;;;;5028251;28;20112;-92
2023/11/27 09:56:49;;;;;;;11.30;9.20;;;6.50;99.90;;;;;;5030471;28;20481;-92
2023/11/27 09:59:17;;;;;;;8.38;7.68;;;6.50;99.90;;;;;;5029697;28;20506;-91
2023/11/27 10:01:43;;;;;;;9.00;8.10;;;6.50;99.90;;;;;;5028662;28;20032;-90
2023/11/27 10:04:09;;;;;;;8.93;8.23;;;6.60;99.90;;;;;;5024556;28;20018;-91
2023/11/27 10:06:42;;;;;;;8.40;7.60;;;6.60;99.90;;;;;;5027809;28;20053;-91
2023/11/27 10:09:08;;;;;;;8.80;8.10;;;6.60;99.90;;;;;;5027496;28;20033;-91
2023/11/27 10:11:50;;;;;;;8.65;7.95;;;6.60;99.90;;;;;;5027416;28;20486;-92
2023/11/27 10:14:18;;;;;;;9.82;9.02;;;6.50;99.90;;;;;;5036731;28;20030;-92
2023/11/27 10:16:45;;;;;;;9.55;8.55;;;6.60;99.90;;;;;;5030498;28;20026;-92
2023/11/27 10:19:19;;;;;;;8.57;7.88;;;7.40;99.90;;;;;;5026790;28;20025;-93
2023/11/27 10:21:45;;;;;;;8.75;7.97;;;7.60;99.90;;;;;;5024769;28;20069;-93
2023/11/27 10:24:11;;;;;;;8.80;7.88;;;7.10;99.90;;;;;;5032559;28;20116;-92
2023/11/27 10:26:40;;;;;;;9.73;8.77;;;6.70;99.90;;;;;;5031302;28;20057;-91
2023/11/27 10:40:14;;;;;;;9.23;8.43;;;6.70;99.90;;;;;;5519355;22;20057;-90
2023/11/27 10:42:49;;;;;;;9.35;8.45;;;6.70;99.90;;;;;;5023030;28;20026;-91
2023/11/27 10:45:17;;;;;;;9.30;8.50;;;6.80;99.90;;;;;;5026054;28;20018;-90
2023/11/27 10:47:48;;;;;;;8.27;7.68;;;6.80;99.90;;;;;;5005882;28;20056;-90
2023/11/27 10:50:18;;;;;;;8.60;7.88;;;6.80;99.90;;;;;;5022535;28;20026;-90
2023/11/27 10:52:48;;;;;;;9.13;8.32;;;6.80;99.90;;;;;;5028216;28;20032;-92
2023/11/27 10:55:16;;;;;;;8.83;8.03;;;6.80;99.90;;;;;;5030724;28;20025;-92
2023/11/27 10:57:44;;;;;;;9.35;8.65;;;6.80;99.90;;;;;;5030499;28;20038;-92
2023/11/27 11:00:14;;;;;;;9.43;8.63;;;6.90;99.90;;;;;;5033505;28;20492;-92
2023/11/27 11:02:41;;;;;;;8.35;7.55;;;6.90;99.90;;;;;;5034992;28;20482;-91
2023/11/27 11:05:10;;;;;;;8.52;7.78;;;7.00;99.90;;;;;;5037076;28;20025;-92
2023/11/27 11:07:46;;;;;;;8.57;7.90;;;7.00;99.90;;;;;;5026052;28;20033;-87
2023/11/27 11:10:15;;;;;;;8.77;8.02;;;7.50;99.90;;;;;;5015102;28;20026;-90
2023/11/27 11:12:47;;;;;;;8.38;7.60;;;7.00;99.90;;;;;;5014212;28;20038;-91
2023/11/27 11:15:20;;;;;;;8.18;7.57;;;7.40;99.90;;;;;;5014174;28;20029;-91
2023/11/27 11:18:10;;;;;;;8.20;7.47;;;8.30;99.90;;;;;;5014455;28;20026;-90
2023/11/27 11:20:53;;;;;;;9.15;7.80;;;7.00;99.90;;;;;;5031760;28;20029;-92
2023/11/27 11:23:38;;;;;;;8.57;7.68;;;7.00;99.90;;;;;;5034931;28;20053;-90
2023/11/27 11:26:32;;;;;;;8.90;8.10;;;7.00;99.90;;;;;;5033926;28;20068;-90
2023/11/27 11:29:11;;;;;;;7.00;6.40;;;7.00;99.90;;;;;;5014582;28;20054;-91
2023/11/27 11:31:47;;;;;;;7.40;6.70;;;7.10;99.90;;;;;;5013812;28;20065;-90
2023/11/27 11:34:26;;;;;;;8.00;7.38;;;7.10;99.90;;;;;;5015424;28;20022;-91
2023/11/27 11:36:58;;;;;;;7.40;6.82;;;7.10;99.90;;;;;;5016881;28;20022;-90
2023/11/27 11:39:24;;;;;;;8.68;7.05;;;7.20;99.90;;;;;;5015435;28;20053;-90
2023/11/27 11:42:04;;;;;;;8.00;7.40;;;7.10;99.90;;;;;;5014555;28;20037;-90
2023/11/27 11:44:33;;;;;;;8.07;7.28;;;7.10;99.90;;;;;;5014348;28;20028;-92
2023/11/27 11:46:59;;;;;;;8.32;7.70;;;7.20;99.90;;;;;;5014832;28;20037;-90
2023/11/27 11:49:28;;;;;;;8.80;8.10;;;7.20;99.90;;;;;;5019244;28;20030;-90
2023/11/27 11:52:20;;;;;;;8.07;7.38;;;7.20;99.90;;;;;;5021110;28;20044;-91
2023/11/27 11:54:47;;;;;;;8.98;8.25;;;7.20;99.90;;;;;;5013456;28;20041;-91
2023/11/27 11:57:22;;;;;;;8.77;7.95;;;7.30;99.90;;;;;;5026420;28;20060;-93
2023/11/27 11:59:52;;;;;;;8.50;7.80;;;7.20;99.90;;;;;;5030549;28;20386;-91
2023/11/27 12:02:22;;;;;;;8.45;7.75;;;7.30;99.90;;;;;;5031715;28;20061;-91
2023/11/27 12:04:52;;;;;;;8.48;7.78;;;7.90;99.90;;;;;;5027787;28;20049;-91
2023/11/27 12:07:24;;;;;;;7.90;7.30;;;7.30;99.90;;;;;;5031311;28;20030;-91
2023/11/27 12:09:51;;;;;;;7.97;7.30;;;8.10;99.90;;;;;;5038187;28;20030;-93
2023/11/27 12:12:19;;;;;;;7.75;7.05;;;7.30;99.90;;;;;;5039024;28;20188;-92
2023/11/27 12:14:46;;;;;;;8.23;7.43;;;7.30;99.90;;;;;;5034699;28;20029;-92
2023/11/27 12:17:15;;;;;;;7.80;7.20;;;7.30;99.90;;;;;;5037289;28;20028;-92
2023/11/27 12:19:45;;;;;;;7.90;7.30;;;7.30;99.90;;;;;;5034474;28;20097;-91
2023/11/27 12:22:12;;;;;;;7.72;7.03;;;7.30;99.90;;;;;;5031857;28;20029;-92
2023/11/27 12:24:50;;;;;;;7.53;6.90;;;8.60;99.90;;;;;;5019594;28;20030;-95
2023/11/27 12:27:16;;;;;;;9.00;7.85;;;7.30;99.90;;;;;;5040868;28;20025;-92
2023/11/27 12:29:45;;;;;;;7.05;6.35;;;8.10;99.90;;;;;;5033261;28;20071;-92
2023/11/27 12:32:10;;;;;;;6.85;6.32;;;7.50;99.90;;;;;;5034380;28;20072;-95
2023/11/27 12:34:40;;;;;;;7.18;6.68;;;7.40;99.90;;;;;;5021314;28;20046;-94
2023/11/27 12:37:08;;;;;;;6.93;6.43;;;8.10;99.90;;;;;;5032365;28;20037;-92
2023/11/27 12:39:37;;;;;;;7.30;6.60;;;7.50;99.90;;;;;;5035146;28;20068;-91
2023/11/27 12:42:13;;;;;;;6.97;6.38;;;7.50;99.90;;;;;;5014984;28;20030;-87
2023/11/27 12:44:46;;;;;;;6.47;5.97;;;7.50;99.90;;;;;;5019053;28;20523;-90
2023/11/27 12:47:18;;;;;;;5.78;5.38;;;8.30;99.90;;;;;;5018881;28;20030;-89
2023/11/27 12:49:46;;;;;;;5.88;5.47;;;7.60;99.90;;;;;;5012894;28;20117;-91
2023/11/27 12:52:14;;;;;;;8.10;5.50;;;7.50;99.90;;;;;;5031566;28;20068;-92
2023/11/27 12:54:40;;;;;;;6.45;6.05;;;8.20;99.90;;;;;;5019516;28;20018;-92
2023/11/27 12:57:06;;;;;;;6.18;5.65;;;7.60;99.90;;;;;;5033773;28;20025;-92
2023/11/27 12:59:46;;;;;;;6.07;5.68;;;8.40;99.90;;;;;;5027419;28;20033;-91
2023/11/27 13:02:26;;;;;;;6.50;5.95;;;8.40;99.90;;;;;;5020203;28;20040;-90
2023/11/27 13:04:57;;;;;;;6.32;5.88;;;8.20;99.90;;;;;;5024125;28;20104;-91
2023/11/27 13:07:23;;;;;;;6.80;6.20;;;8.40;99.90;;;;;;5030525;28;20466;-90
2023/11/27 13:10:09;;;;;;;6.35;5.93;;;8.60;99.90;;;;;;5033345;28;20031;-90
2023/11/27 13:12:39;;;;;;;7.43;6.93;;;7.10;99.90;;;;;;5025497;28;20044;-88
2023/11/27 13:15:10;;;;;;;7.13;6.43;;;7.80;99.90;;;;;;5021537;28;20029;-87
2023/11/27 13:17:37;;;;;;;7.93;7.32;;;7.60;99.90;;;;;;5022238;28;20029;-88
2023/11/27 13:20:17;;;;;;;8.65;7.18;;;7.40;99.90;;;;;;5021698;28;20034;-87
2023/11/27 13:22:44;;;;;;;7.18;6.47;;;7.60;99.90;;;;;;5023143;28;20025;-86
2023/11/27 13:25:14;;;;;;;7.28;6.78;;;7.60;99.90;;;;;;5031031;28;20043;-88
2023/11/27 13:27:44;;;;;;;6.95;6.45;;;7.60;99.90;;;;;;5033152;28;20473;-88
2023/11/27 13:30:26;;;;;;;7.60;7.00;;;7.60;99.90;;;;;;5027074;28;20112;-86
2023/11/27 13:32:58;;;;;;;8.00;7.30;;;7.60;99.90;;;;;;5024411;28;20088;-88
2023/11/27 13:35:33;;;;;;;7.05;6.55;;;8.50;99.90;;;;;;5025453;28;20041;-87
2023/11/27 13:38:00;;;;;;;7.90;7.20;;;7.60;99.90;;;;;;5028361;28;20030;-87
2023/11/27 13:40:35;;;;;;;7.90;7.20;;;7.60;99.90;;;;;;5027887;28;20049;-87
2023/11/27 13:43:09;;;;;;;8.10;7.50;;;8.60;99.90;;;;;;5023713;28;20030;-88
2023/11/27 13:45:35;;;;;;;9.63;8.88;;;7.60;99.90;;;;;;5026773;28;20030;-87
2023/11/27 13:48:02;;;;;;;9.30;8.60;;;7.60;99.90;;;;;;5026996;28;20351;-88
2023/11/27 13:50:36;;;;;;;9.55;8.75;;;8.40;99.90;;;;;;5024070;28;20032;-92
2023/11/27 13:53:15;;;;;;;9.52;8.80;;;8.50;99.90;;;;;;5028886;28;20040;-90